Wadsworth, Nevada
Current Conditions -  °F | °C
As of 9:55 PM on Tuesday 21 Oct 2014 (Local Time) from KRNO Reporting Station
Few Clouds Few Clouds  
Wind Chill: 50°   Ceiling: Unl
Heat Index: 50°   Visibility: 10mi
Dew Point: 30°   Wind: 0mph
Humidity: 46%   Direction: NA
Pressure: 30.09"   Gusts: NA
Location:  39.63°N, 119.29°W
Report Text: KRNO 220455Z 00000KT 10SM FEW200 10/M01 A3009 RMK AO2 SLP171 T01001011
Loading
Personal Weather Stations






























Interactive Weather Map
Tropical Storm Tracking
New forecast layout! Learn more

10-Day Weather Forecast

Advertisements
Track Severe Weather on mobile